createdAt,value
2018-11-03T00:00:10.459Z,9.50
2018-11-03T00:01:10.483Z,9.40
2018-11-03T00:02:10.511Z,10.20
2018-11-03T00:03:10.540Z,11.50
2018-11-03T00:04:10.568Z,10.20
2018-11-03T00:05:10.595Z,10.70
2018-11-03T00:06:10.623Z,11.10
2018-11-03T00:07:10.651Z,11.20
2018-11-03T00:08:10.679Z,11.50
2018-11-03T00:09:10.707Z,11.70
2018-11-03T00:10:10.735Z,11.60
2018-11-03T00:11:10.764Z,11.40
2018-11-03T00:12:10.792Z,11.20
2018-11-03T00:13:10.821Z,11.00
2018-11-03T00:14:10.848Z,11.10
2018-11-03T00:15:10.876Z,10.00
2018-11-03T00:16:10.905Z,11.00
2018-11-03T00:17:10.933Z,10.90
2018-11-03T00:18:10.961Z,9.90
2018-11-03T00:19:10.990Z,10.00
2018-11-03T00:20:11.023Z,10.60
2018-11-03T00:21:11.043Z,10.40
2018-11-03T00:22:11.071Z,11.30
2018-11-03T00:23:11.100Z,10.70
2018-11-03T00:24:11.131Z,10.40
2018-11-03T00:25:11.156Z,10.40
2018-11-03T00:26:11.184Z,10.10
2018-11-03T00:27:11.213Z,9.50
2018-11-03T00:28:11.242Z,10.40
2018-11-03T00:29:11.268Z,9.60
2018-11-03T00:30:11.299Z,9.10
2018-11-03T00:31:11.325Z,9.50
2018-11-03T00:32:11.353Z,8.70
2018-11-03T00:33:11.381Z,9.20
2018-11-03T00:34:11.410Z,9.40
2018-11-03T00:35:11.438Z,9.90
2018-11-03T00:36:11.466Z,9.60
2018-11-03T00:37:11.494Z,10.50
2018-11-03T00:38:11.523Z,8.70
2018-11-03T00:39:11.549Z,9.80
2018-11-03T00:40:11.578Z,10.20
2018-11-03T00:41:11.605Z,9.80
2018-11-03T00:42:11.634Z,10.10
2018-11-03T00:43:11.663Z,9.20
2018-11-03T00:44:11.690Z,9.80
2018-11-03T00:45:11.719Z,10.20
2018-11-03T00:46:11.746Z,9.40
2018-11-03T00:47:11.776Z,9.20
2018-11-03T00:48:11.844Z,9.20
2018-11-03T00:49:11.830Z,10.40
2018-11-03T00:50:11.859Z,10.70
2018-11-03T00:51:11.889Z,9.70
2018-11-03T00:52:11.916Z,9.40
2018-11-03T00:53:11.944Z,10.10
2018-11-03T00:54:11.973Z,10.70
2018-11-03T00:55:12.000Z,10.60
2018-11-03T00:56:12.029Z,10.60
2018-11-03T00:57:12.056Z,9.70
2018-11-03T00:58:12.084Z,10.00
2018-11-03T00:59:12.114Z,10.20
2018-11-03T01:00:12.146Z,10.20
2018-11-03T01:01:12.170Z,10.60
2018-11-03T01:02:12.201Z,9.40
2018-11-03T01:03:12.230Z,9.20
2018-11-03T01:04:12.255Z,9.80
2018-11-03T01:05:12.283Z,16.40
2018-11-03T01:06:12.312Z,13.10
2018-11-03T01:07:12.341Z,10.70
2018-11-03T01:08:12.368Z,10.50
2018-11-03T01:09:12.395Z,11.40
2018-11-03T01:10:12.425Z,11.30
2018-11-03T01:11:12.452Z,11.20
2018-11-03T01:12:12.481Z,12.10
2018-11-03T01:13:12.509Z,14.50
2018-11-03T01:14:12.537Z,12.90
2018-11-03T01:15:12.567Z,12.80
2018-11-03T01:16:12.594Z,12.20
2018-11-03T01:17:12.622Z,10.60
2018-11-03T01:18:12.653Z,10.40
2018-11-03T01:19:12.680Z,9.60
2018-11-03T01:20:12.707Z,10.90
2018-11-03T01:21:12.734Z,10.00
2018-11-03T01:22:12.765Z,10.20
2018-11-03T01:23:12.792Z,10.70
2018-11-03T01:24:12.820Z,10.60
2018-11-03T01:25:12.848Z,10.10
2018-11-03T01:26:12.877Z,11.80
2018-11-03T01:27:12.905Z,10.70
2018-11-03T01:28:12.935Z,9.20
2018-11-03T01:29:12.961Z,9.70
2018-11-03T01:30:12.992Z,9.90
2018-11-03T01:31:13.019Z,10.10
2018-11-03T01:32:13.057Z,9.70
2018-11-03T01:33:13.075Z,9.70
2018-11-03T01:34:13.104Z,9.80
2018-11-03T01:35:13.132Z,10.00
2018-11-03T01:36:13.161Z,11.00
2018-11-03T01:37:13.189Z,10.00
2018-11-03T01:38:13.217Z,10.20
2018-11-03T01:39:13.247Z,10.10
2018-11-03T01:40:13.275Z,10.00
2018-11-03T01:41:13.304Z,10.40
2018-11-03T01:42:13.332Z,9.50
2018-11-03T01:43:13.360Z,8.90
2018-11-03T01:44:13.390Z,9.70
2018-11-03T01:45:13.417Z,10.70
2018-11-03T01:46:13.445Z,10.50
2018-11-03T01:47:13.473Z,10.70
2018-11-03T01:48:13.503Z,11.50
2018-11-03T01:49:13.531Z,11.60
2018-11-03T01:50:13.559Z,11.10
2018-11-03T01:51:13.588Z,10.70
2018-11-03T01:52:13.618Z,12.10
2018-11-03T01:53:13.646Z,11.00
2018-11-03T01:54:13.674Z,11.70
2018-11-03T01:55:13.701Z,12.30
2018-11-03T01:56:13.731Z,11.60
2018-11-03T01:57:13.759Z,10.80
2018-11-03T01:58:13.787Z,10.90
2018-11-03T01:59:13.816Z,10.80
2018-11-03T02:00:13.858Z,10.10
2018-11-03T02:01:13.873Z,10.30
2018-11-03T02:02:13.901Z,10.40
2018-11-03T02:03:13.930Z,11.20
2018-11-03T02:04:13.963Z,10.60
2018-11-03T02:05:13.988Z,10.00
2018-11-03T02:06:14.016Z,11.40
2018-11-03T02:07:14.092Z,10.10
2018-11-03T02:08:14.073Z,9.90
2018-11-03T02:09:14.101Z,10.20
2018-11-03T02:10:14.129Z,10.30
2018-11-03T02:11:14.159Z,10.10
2018-11-03T02:12:14.187Z,10.20
2018-11-03T02:13:14.215Z,10.50
2018-11-03T02:14:14.244Z,10.80
2018-11-03T02:15:14.275Z,10.00
2018-11-03T02:16:14.305Z,10.40
2018-11-03T02:17:14.330Z,10.40
2018-11-03T02:18:14.359Z,10.00
2018-11-03T02:19:14.387Z,10.20
2018-11-03T02:20:14.424Z,9.70
2018-11-03T02:21:14.447Z,9.10
2018-11-03T02:22:14.472Z,9.30
2018-11-03T02:23:14.506Z,9.60
2018-11-03T02:24:14.530Z,9.10
2018-11-03T02:25:14.561Z,9.60
2018-11-03T02:26:14.588Z,10.20
2018-11-03T02:27:14.616Z,10.00
2018-11-03T02:28:14.645Z,9.60
2018-11-03T02:29:14.696Z,9.60
2018-11-03T02:30:14.702Z,10.80
2018-11-03T02:31:14.730Z,9.80
2018-11-03T02:32:14.773Z,10.20
2018-11-03T02:33:14.787Z,10.50
2018-11-03T02:34:14.818Z,9.70
2018-11-03T02:35:14.847Z,11.20
2018-11-03T02:36:14.874Z,10.60
2018-11-03T02:37:14.902Z,11.30
2018-11-03T02:38:14.931Z,10.80
2018-11-03T02:39:14.962Z,10.10
2018-11-03T02:40:14.990Z,10.00
2018-11-03T02:41:15.017Z,10.10
2018-11-03T02:42:17.301Z,9.40
2018-11-03T02:43:15.073Z,9.20
2018-11-03T02:44:15.110Z,9.60
2018-11-03T02:45:15.130Z,9.60
2018-11-03T02:46:15.160Z,10.00
2018-11-03T02:47:15.194Z,10.00
2018-11-03T02:48:15.217Z,10.10
2018-11-03T02:49:15.251Z,10.30
2018-11-03T02:50:15.273Z,8.80
2018-11-03T02:51:15.303Z,9.90
2018-11-03T02:52:15.333Z,9.50
2018-11-03T02:53:15.360Z,8.80
2018-11-03T02:54:15.389Z,9.50
2018-11-03T02:55:15.451Z,9.60
2018-11-03T02:56:15.447Z,10.30
2018-11-03T02:57:15.477Z,10.80
2018-11-03T02:58:15.503Z,9.70
2018-11-03T02:59:15.534Z,9.60
2018-11-03T03:00:15.561Z,9.60
2018-11-03T03:01:15.590Z,10.80
2018-11-03T03:02:15.628Z,10.30
2018-11-03T03:03:15.648Z,10.80
2018-11-03T03:04:15.677Z,9.70
2018-11-03T03:05:15.706Z,11.40
2018-11-03T03:06:15.733Z,11.30
2018-11-03T03:07:15.762Z,12.10
2018-11-03T03:08:15.790Z,10.10
2018-11-03T03:09:15.820Z,11.00
2018-11-03T03:10:15.848Z,11.90
2018-11-03T03:11:15.877Z,11.80
2018-11-03T03:12:15.905Z,10.90
2018-11-03T03:13:15.933Z,10.60
2018-11-03T03:14:15.962Z,11.70
2018-11-03T03:15:15.994Z,11.20
2018-11-03T03:16:16.020Z,11.40
2018-11-03T03:17:16.049Z,12.00
2018-11-03T03:18:16.078Z,11.40
2018-11-03T03:19:16.108Z,11.70
2018-11-03T03:20:16.135Z,11.90
2018-11-03T03:21:16.163Z,11.40
2018-11-03T03:22:16.192Z,10.90
2018-11-03T03:23:16.220Z,10.50
2018-11-03T03:24:16.249Z,10.60
2018-11-03T03:25:16.277Z,11.50
2018-11-03T03:26:16.306Z,11.10
2018-11-03T03:27:16.335Z,11.80
2018-11-03T03:28:16.364Z,10.80
2018-11-03T03:29:16.406Z,10.90
2018-11-03T03:30:16.426Z,11.60
2018-11-03T03:31:16.449Z,10.50
2018-11-03T03:32:16.479Z,14.20
2018-11-03T03:33:16.506Z,15.00
2018-11-03T03:34:16.537Z,12.00
2018-11-03T03:35:16.564Z,12.10
2018-11-03T03:36:16.593Z,12.30
2018-11-03T03:37:16.620Z,10.80
2018-11-03T03:38:16.652Z,12.10
2018-11-03T03:39:16.679Z,12.30
2018-11-03T03:40:16.708Z,11.00
2018-11-03T03:41:16.736Z,11.70
2018-11-03T03:42:16.785Z,11.70
2018-11-03T03:43:16.799Z,11.40
2018-11-03T03:44:16.821Z,12.50
2018-11-03T03:45:16.851Z,16.60
2018-11-03T03:46:16.883Z,15.10
2018-11-03T03:47:16.907Z,12.80
2018-11-03T03:48:16.937Z,13.40
2018-11-03T03:49:16.969Z,13.20
2018-11-03T03:50:16.992Z,13.80
2018-11-03T03:51:17.023Z,14.50
2018-11-03T03:52:17.051Z,15.70
2018-11-03T03:53:17.078Z,15.90
2018-11-03T03:54:17.109Z,14.80
2018-11-03T03:55:17.141Z,16.00
2018-11-03T03:56:17.165Z,18.60
2018-11-03T03:57:17.194Z,19.10
2018-11-03T03:58:17.222Z,19.70
2018-11-03T03:59:17.251Z,16.90
2018-11-03T04:00:17.279Z,17.00
2018-11-03T04:01:17.308Z,16.60
2018-11-03T04:02:17.338Z,16.10
2018-11-03T04:03:17.370Z,17.50
2018-11-03T04:04:17.393Z,17.60
2018-11-03T04:05:17.421Z,19.00
2018-11-03T04:06:17.468Z,20.00
2018-11-03T04:07:17.479Z,20.40
2018-11-03T04:08:17.506Z,20.30
2018-11-03T04:09:17.539Z,19.50
2018-11-03T04:10:17.563Z,19.80
2018-11-03T04:11:17.592Z,16.80
2018-11-03T04:12:17.622Z,17.50
2018-11-03T04:13:17.649Z,16.10
2018-11-03T04:14:17.678Z,16.40
2018-11-03T04:15:17.706Z,16.20
2018-11-03T04:16:17.734Z,17.50
2018-11-03T04:17:17.763Z,16.90
2018-11-03T04:18:17.790Z,16.50
2018-11-03T04:19:17.822Z,17.90
2018-11-03T04:20:17.851Z,16.30
2018-11-03T04:21:17.876Z,18.20
2018-11-03T04:22:17.906Z,16.90
2018-11-03T04:23:17.932Z,17.20
2018-11-03T04:24:17.960Z,17.20
2018-11-03T04:25:17.989Z,17.10
2018-11-03T04:26:18.018Z,16.70
2018-11-03T04:27:18.045Z,16.80
2018-11-03T04:28:18.076Z,15.80
2018-11-03T04:29:18.101Z,14.80
2018-11-03T04:30:18.129Z,16.10
2018-11-03T04:31:18.162Z,17.10
2018-11-03T04:32:18.186Z,17.40
2018-11-03T04:33:18.214Z,17.70
2018-11-03T04:34:18.241Z,18.40
2018-11-03T04:35:18.280Z,16.70
2018-11-03T04:36:18.298Z,17.30
2018-11-03T04:37:18.325Z,17.90
2018-11-03T04:38:18.353Z,18.30
2018-11-03T04:39:18.383Z,20.10
2018-11-03T04:40:18.409Z,19.50
2018-11-03T04:41:18.437Z,18.70
2018-11-03T04:42:18.470Z,19.10
2018-11-03T04:43:18.495Z,17.10
2018-11-03T04:44:18.523Z,18.30
2018-11-03T04:45:18.616Z,18.80
2018-11-03T04:46:18.578Z,19.20
2018-11-03T04:47:18.606Z,19.20
2018-11-03T04:48:18.635Z,17.90
2018-11-03T04:49:18.661Z,20.20
2018-11-03T04:50:18.689Z,19.80
2018-11-03T04:51:18.748Z,18.80
2018-11-03T04:52:18.753Z,19.90
2018-11-03T04:53:18.774Z,18.70
2018-11-03T04:54:18.802Z,20.60
2018-11-03T04:55:18.987Z,19.70
2018-11-03T04:56:18.860Z,20.00
2018-11-03T04:57:18.886Z,20.20
2018-11-03T04:58:18.960Z,19.60
2018-11-03T04:59:18.945Z,20.00
2018-11-03T05:00:18.977Z,19.60
2018-11-03T05:01:18.999Z,20.40
2018-11-03T05:02:19.027Z,18.40
2018-11-03T05:03:19.055Z,18.70
2018-11-03T05:04:19.119Z,18.20
2018-11-03T05:05:19.110Z,19.00
2018-11-03T05:06:19.139Z,18.60
2018-11-03T05:07:19.167Z,18.40
2018-11-03T05:08:19.196Z,17.70
2018-11-03T05:09:19.241Z,18.50
2018-11-03T05:10:19.337Z,17.90
2018-11-03T05:11:19.281Z,18.50
2018-11-03T05:12:19.309Z,17.90
2018-11-03T05:13:19.335Z,18.50
2018-11-03T05:14:19.366Z,18.50
2018-11-03T05:15:19.392Z,18.70
2018-11-03T05:16:19.421Z,18.70
2018-11-03T05:17:19.449Z,19.20
2018-11-03T05:18:19.478Z,18.40
2018-11-03T05:19:19.505Z,18.80
2018-11-03T05:20:19.535Z,19.80
2018-11-03T05:21:19.594Z,19.90
2018-11-03T05:22:19.589Z,20.30
2018-11-03T05:23:19.620Z,19.40
2018-11-03T05:24:19.647Z,19.50
2018-11-03T05:25:19.674Z,19.40
2018-11-03T05:26:19.702Z,20.20
2018-11-03T05:27:19.729Z,19.00
2018-11-03T05:28:19.769Z,18.20
2018-11-03T05:29:19.788Z,18.30
2018-11-03T05:30:19.815Z,17.80
2018-11-03T05:31:19.917Z,18.70
2018-11-03T05:32:19.873Z,19.10
2018-11-03T05:33:19.901Z,19.20
2018-11-03T05:34:19.931Z,19.50
2018-11-03T05:35:19.959Z,18.80
2018-11-03T05:36:20.015Z,18.70
2018-11-03T05:37:20.013Z,19.80
2018-11-03T05:38:20.041Z,18.70
2018-11-03T05:39:20.071Z,18.90
2018-11-03T05:40:20.099Z,20.80
2018-11-03T05:41:20.128Z,19.90
2018-11-03T05:42:20.155Z,20.20
2018-11-03T05:43:20.183Z,19.10
2018-11-03T05:44:20.213Z,18.20
2018-11-03T05:45:20.240Z,19.60
2018-11-03T05:46:20.287Z,19.20
2018-11-03T05:47:20.298Z,19.30
2018-11-03T05:48:20.327Z,19.60
2018-11-03T05:49:20.354Z,19.00
2018-11-03T05:50:20.381Z,18.80
2018-11-03T05:51:20.410Z,20.10
2018-11-03T05:52:20.438Z,19.60
2018-11-03T05:53:20.478Z,20.80
2018-11-03T05:54:20.496Z,19.10
2018-11-03T05:55:20.541Z,18.70
2018-11-03T05:56:20.556Z,19.70
2018-11-03T05:57:20.581Z,19.30
2018-11-03T05:58:20.609Z,19.60
2018-11-03T05:59:20.641Z,18.20
2018-11-03T06:00:20.666Z,19.30
2018-11-03T06:01:20.693Z,19.30
2018-11-03T06:02:20.722Z,18.60
2018-11-03T06:03:20.753Z,19.80
2018-11-03T06:04:20.779Z,19.90
2018-11-03T06:05:20.806Z,19.20
2018-11-03T06:06:20.835Z,19.10
2018-11-03T06:07:20.866Z,19.70
2018-11-03T06:08:20.893Z,19.20
2018-11-03T06:09:20.921Z,19.60
2018-11-03T06:10:20.950Z,19.80
2018-11-03T06:11:20.978Z,19.50
2018-11-03T06:12:21.011Z,19.60
2018-11-03T06:13:21.034Z,20.00
2018-11-03T06:14:21.067Z,19.70
2018-11-03T06:15:21.146Z,19.30
2018-11-03T06:16:21.125Z,19.10
2018-11-03T06:17:21.148Z,20.50
2018-11-03T06:18:21.177Z,19.60
2018-11-03T06:19:21.206Z,20.40
2018-11-03T06:20:21.235Z,22.40
2018-11-03T06:21:21.262Z,20.60
2018-11-03T06:22:21.411Z,20.90
2018-11-03T06:23:21.377Z,20.80
2018-11-03T06:24:21.347Z,19.50
2018-11-03T06:25:21.375Z,20.50
2018-11-03T06:26:21.404Z,19.80
2018-11-03T06:27:21.432Z,20.10
2018-11-03T06:28:21.463Z,19.70
2018-11-03T06:29:21.488Z,19.80
2018-11-03T06:30:21.517Z,20.30
2018-11-03T06:31:21.546Z,20.90
2018-11-03T06:32:21.574Z,19.60
2018-11-03T06:33:21.603Z,21.20
2018-11-03T06:34:21.632Z,20.50
2018-11-03T06:35:21.739Z,21.00
2018-11-03T06:36:21.690Z,21.80
2018-11-03T06:37:21.722Z,21.00
2018-11-03T06:38:21.747Z,22.60
2018-11-03T06:39:21.773Z,21.20
2018-11-03T06:40:21.801Z,22.70
2018-11-03T06:41:21.831Z,22.70
2018-11-03T06:42:21.858Z,22.00
2018-11-03T06:43:21.887Z,21.30
2018-11-03T06:44:21.917Z,21.60
2018-11-03T06:45:21.944Z,20.50
2018-11-03T06:46:22.023Z,19.80
2018-11-03T06:47:22.070Z,20.10
2018-11-03T06:48:22.029Z,20.20
2018-11-03T06:49:22.058Z,19.30
2018-11-03T06:50:22.086Z,20.00
2018-11-03T06:51:22.115Z,21.10
2018-11-03T06:52:22.241Z,20.80
2018-11-03T06:53:22.171Z,20.90
2018-11-03T06:54:22.202Z,20.60
2018-11-03T06:55:22.228Z,20.00
2018-11-03T06:56:22.257Z,19.50
2018-11-03T06:57:22.286Z,18.80
2018-11-03T06:58:22.315Z,20.00
2018-11-03T06:59:22.342Z,20.70
2018-11-03T07:00:22.373Z,19.40
2018-11-03T07:01:22.400Z,19.90
2018-11-03T07:02:22.429Z,20.20
2018-11-03T07:03:22.460Z,19.50
2018-11-03T07:04:22.488Z,19.70
2018-11-03T07:05:22.537Z,18.20
2018-11-03T07:06:22.544Z,18.30
2018-11-03T07:07:22.572Z,20.60
2018-11-03T07:08:22.601Z,18.60
2018-11-03T07:09:22.629Z,18.30
2018-11-03T07:10:22.667Z,19.10
2018-11-03T07:11:22.697Z,18.50
2018-11-03T07:12:22.947Z,17.70
2018-11-03T07:13:22.839Z,18.00
2018-11-03T07:14:22.772Z,18.80
2018-11-03T07:15:22.800Z,18.10
2018-11-03T07:16:22.830Z,17.20
2018-11-03T07:17:22.859Z,18.40
2018-11-03T07:18:22.887Z,18.20
2018-11-03T07:19:22.916Z,18.70
2018-11-03T07:20:22.945Z,18.40
2018-11-03T07:21:23.035Z,18.20
2018-11-03T07:22:23.001Z,17.00
2018-11-03T07:23:23.031Z,17.80
2018-11-03T07:24:23.059Z,18.20
2018-11-03T07:25:23.097Z,18.40
2018-11-03T07:26:23.116Z,17.80
2018-11-03T07:27:23.145Z,17.70
2018-11-03T07:28:23.174Z,17.80
2018-11-03T07:29:23.257Z,17.60
2018-11-03T07:30:23.231Z,17.70
2018-11-03T07:31:23.261Z,16.80
2018-11-03T07:32:23.288Z,18.20
2018-11-03T07:33:23.317Z,18.00
2018-11-03T07:34:23.345Z,17.80
2018-11-03T07:35:23.375Z,17.40
2018-11-03T07:36:23.403Z,17.00
2018-11-03T07:37:23.430Z,16.60
2018-11-03T07:38:23.464Z,17.90
2018-11-03T07:39:23.490Z,17.10
2018-11-03T07:40:23.519Z,17.20
2018-11-03T07:41:23.551Z,16.70
2018-11-03T07:42:23.637Z,16.40
2018-11-03T07:43:23.605Z,16.10
2018-11-03T07:44:23.635Z,17.10
2018-11-03T07:45:23.662Z,16.00
2018-11-03T07:46:23.693Z,15.50
2018-11-03T07:47:23.772Z,16.60
2018-11-03T07:48:23.757Z,16.80
2018-11-03T07:49:23.823Z,16.40
2018-11-03T07:50:23.809Z,16.40
2018-11-03T07:51:23.916Z,16.80
2018-11-03T07:52:23.870Z,16.50
2018-11-03T07:53:23.894Z,15.70
2018-11-03T07:54:23.927Z,16.10
2018-11-03T07:55:23.955Z,15.80
2018-11-03T07:56:23.984Z,17.20
2018-11-03T07:57:24.013Z,17.20
2018-11-03T07:58:24.042Z,16.50
2018-11-03T07:59:24.071Z,15.60
2018-11-03T08:00:24.141Z,15.80
2018-11-03T08:01:24.161Z,16.20
2018-11-03T08:02:24.194Z,16.00
2018-11-03T08:03:24.192Z,16.40
2018-11-03T08:04:24.218Z,17.00
2018-11-03T08:05:24.246Z,16.70
2018-11-03T08:06:24.274Z,17.00
2018-11-03T08:07:24.303Z,16.20
2018-11-03T08:08:24.335Z,17.40
2018-11-03T08:09:24.363Z,16.20
2018-11-03T08:10:24.392Z,16.70
2018-11-03T08:11:24.421Z,17.30
2018-11-03T08:12:24.451Z,16.50
2018-11-03T08:13:24.480Z,16.50
2018-11-03T08:14:24.509Z,16.50
2018-11-03T08:15:24.539Z,17.20
2018-11-03T08:16:24.567Z,16.40
2018-11-03T08:17:24.598Z,16.90
2018-11-03T08:18:24.626Z,16.10
2018-11-03T08:19:24.657Z,16.30
2018-11-03T08:20:24.684Z,16.80
2018-11-03T08:21:24.713Z,16.00
2018-11-03T08:22:24.743Z,16.10
2018-11-03T08:23:24.772Z,15.10
2018-11-03T08:24:24.805Z,16.00
2018-11-03T08:25:24.830Z,15.70
2018-11-03T08:26:24.860Z,15.80
2018-11-03T08:27:24.892Z,16.40
2018-11-03T08:28:24.919Z,15.90
2018-11-03T08:29:24.950Z,15.70
2018-11-03T08:30:24.977Z,15.50
2018-11-03T08:31:25.065Z,15.50
2018-11-03T08:32:25.037Z,15.80
2018-11-03T08:33:25.068Z,13.90
2018-11-03T08:34:25.131Z,14.90
2018-11-03T08:35:25.125Z,15.50
2018-11-03T08:36:25.191Z,15.90
2018-11-03T08:37:26.785Z,15.40
2018-11-03T08:38:25.232Z,14.80
2018-11-03T08:39:25.336Z,14.50
2018-11-03T08:40:25.276Z,14.40
2018-11-03T08:41:25.345Z,13.90
2018-11-03T08:42:25.332Z,14.40
2018-11-03T08:43:25.362Z,13.20
2018-11-03T08:44:25.391Z,13.80
2018-11-03T08:45:25.419Z,13.80
2018-11-03T08:46:25.451Z,13.40
2018-11-03T08:47:25.511Z,14.10
2018-11-03T08:48:25.745Z,13.10
2018-11-03T08:49:25.538Z,13.80
2018-11-03T08:50:25.589Z,13.30
2018-11-03T08:51:25.623Z,14.20
2018-11-03T08:52:25.648Z,12.40
2018-11-03T08:53:25.657Z,13.00
2018-11-03T08:54:25.687Z,13.80
2018-11-03T08:55:25.718Z,14.20
2018-11-03T08:56:25.748Z,14.10
2018-11-03T08:57:25.779Z,13.50
2018-11-03T08:58:25.807Z,13.80
2018-11-03T08:59:25.867Z,13.80
2018-11-03T09:00:25.868Z,13.60
2018-11-03T09:01:25.896Z,14.60
2018-11-03T09:02:25.926Z,13.60
2018-11-03T09:03:25.956Z,14.50
2018-11-03T09:04:25.987Z,13.50
2018-11-03T09:05:26.094Z,14.60
2018-11-03T09:06:26.084Z,14.40
2018-11-03T09:07:26.077Z,14.40
2018-11-03T09:08:26.107Z,12.50
2018-11-03T09:09:26.137Z,13.20
2018-11-03T09:10:26.173Z,13.20
2018-11-03T09:11:26.197Z,13.30
2018-11-03T09:12:26.229Z,14.40
2018-11-03T09:13:26.257Z,14.10
2018-11-03T09:14:26.320Z,14.60
2018-11-03T09:15:26.316Z,14.00
2018-11-03T09:16:26.347Z,14.70
2018-11-03T09:17:26.378Z,14.20
2018-11-03T09:18:26.407Z,13.80
2018-11-03T09:19:26.439Z,13.20
2018-11-03T09:20:26.470Z,13.60
2018-11-03T09:21:26.497Z,13.40
2018-11-03T09:22:26.532Z,13.20
2018-11-03T09:23:26.558Z,14.60
2018-11-03T09:24:26.590Z,13.10
2018-11-03T09:25:26.619Z,14.10
2018-11-03T09:26:26.650Z,13.80
2018-11-03T09:27:26.681Z,13.60
2018-11-03T09:28:26.711Z,13.30
2018-11-03T09:29:26.759Z,13.80
2018-11-03T09:30:26.785Z,13.70
2018-11-03T09:31:26.819Z,14.20
2018-11-03T09:32:26.846Z,13.60
2018-11-03T09:33:26.881Z,13.00
2018-11-03T09:34:26.971Z,13.90
2018-11-03T09:35:26.947Z,14.00
2018-11-03T09:36:26.972Z,12.60
2018-11-03T09:37:27.006Z,13.60
2018-11-03T09:38:27.034Z,13.40
2018-11-03T09:39:27.068Z,14.30
2018-11-03T09:40:27.096Z,14.00
2018-11-03T09:41:27.130Z,13.40
2018-11-03T09:42:27.159Z,15.40
2018-11-03T09:43:27.280Z,14.10
2018-11-03T09:44:27.200Z,13.60
2018-11-03T09:45:27.231Z,14.20
2018-11-03T09:46:27.261Z,14.10
2018-11-03T09:47:27.308Z,14.20
2018-11-03T09:48:27.447Z,12.90
2018-11-03T09:49:27.403Z,12.50
2018-11-03T09:50:27.493Z,13.50
2018-11-03T09:51:27.427Z,12.50
2018-11-03T09:52:27.496Z,13.00
2018-11-03T09:53:27.480Z,13.40
2018-11-03T09:54:27.560Z,13.40
2018-11-03T09:55:27.597Z,13.60
2018-11-03T09:56:27.677Z,13.90
2018-11-03T09:57:27.635Z,13.80
2018-11-03T09:58:27.741Z,13.50
2018-11-03T09:59:27.682Z,13.10
2018-11-03T10:00:27.705Z,13.60
2018-11-03T10:01:27.745Z,13.30
2018-11-03T10:02:27.773Z,13.70
2018-11-03T10:03:27.807Z,12.70
2018-11-03T10:04:27.865Z,13.60
2018-11-03T10:05:27.869Z,14.00
2018-11-03T10:06:27.903Z,14.70
2018-11-03T10:07:27.929Z,13.40
2018-11-03T10:08:27.953Z,13.50
2018-11-03T10:09:27.995Z,13.90
2018-11-03T10:10:28.027Z,13.20
2018-11-03T10:11:28.056Z,14.10
2018-11-03T10:12:28.067Z,13.70
2018-11-03T10:13:28.101Z,12.70
2018-11-03T10:14:28.129Z,13.30
2018-11-03T10:15:28.228Z,12.90
2018-11-03T10:16:28.211Z,14.00
2018-11-03T10:17:28.240Z,12.70
2018-11-03T10:18:28.270Z,12.70
2018-11-03T10:19:28.309Z,13.40
2018-11-03T10:20:28.343Z,13.50
2018-11-03T10:21:28.351Z,12.20
2018-11-03T10:22:28.575Z,13.60
2018-11-03T10:23:28.415Z,13.10
2018-11-03T10:24:28.447Z,12.80
2018-11-03T10:25:28.506Z,84.00
2018-11-03T10:26:28.558Z,31.70
2018-11-03T10:27:28.585Z,21.40
2018-11-03T10:28:28.670Z,23.40
2018-11-03T10:29:28.607Z,19.80
2018-11-03T10:30:28.639Z,16.50
2018-11-03T10:31:28.671Z,12.90
2018-11-03T10:32:28.703Z,14.20
2018-11-03T10:33:28.747Z,13.40
2018-11-03T10:34:28.769Z,14.40
2018-11-03T10:35:28.851Z,13.50
2018-11-03T10:36:28.833Z,13.20
2018-11-03T10:37:28.865Z,13.40
2018-11-03T10:38:28.897Z,14.50
2018-11-03T10:39:28.929Z,12.60
2018-11-03T10:40:28.975Z,13.80
2018-11-03T10:41:28.992Z,13.30
2018-11-03T10:42:29.025Z,13.40
2018-11-03T10:43:29.058Z,13.00
2018-11-03T10:44:29.090Z,13.30
2018-11-03T10:45:29.121Z,12.70
2018-11-03T10:46:29.339Z,13.70
2018-11-03T10:47:29.188Z,13.00
2018-11-03T10:48:29.220Z,12.70
2018-11-03T10:49:29.252Z,12.90
2018-11-03T10:50:29.286Z,13.30
2018-11-03T10:51:29.319Z,13.00
2018-11-03T10:52:29.351Z,11.90
2018-11-03T10:53:29.452Z,12.40
2018-11-03T10:54:29.417Z,13.40
2018-11-03T10:55:29.453Z,12.80
2018-11-03T10:56:29.487Z,13.00
2018-11-03T10:57:29.544Z,12.70
2018-11-03T10:58:29.552Z,12.50
2018-11-03T10:59:29.588Z,12.50
2018-11-03T11:00:29.622Z,12.80
2018-11-03T11:01:29.654Z,12.90
2018-11-03T11:02:29.688Z,12.80
2018-11-03T11:03:29.766Z,12.80
2018-11-03T11:04:29.755Z,12.40
2018-11-03T11:05:29.790Z,12.00
2018-11-03T11:06:29.861Z,11.60
2018-11-03T11:07:29.863Z,12.80
2018-11-03T11:08:29.896Z,12.10
2018-11-03T11:09:29.931Z,12.60
2018-11-03T11:10:29.966Z,12.70
2018-11-03T11:11:30.005Z,11.90
2018-11-03T11:12:30.039Z,11.30
2018-11-03T11:13:30.091Z,11.30
2018-11-03T11:14:30.130Z,12.10
2018-11-03T11:15:30.167Z,11.90
2018-11-03T11:16:30.515Z,11.70
2018-11-03T11:17:30.230Z,11.90
2018-11-03T11:18:30.289Z,11.50
2018-11-03T11:19:30.305Z,11.10
2018-11-03T11:20:30.338Z,11.80
2018-11-03T11:21:30.375Z,12.30
2018-11-03T11:22:30.417Z,11.30
2018-11-03T11:23:30.476Z,11.10
2018-11-03T11:24:30.655Z,11.30
2018-11-03T11:25:30.642Z,11.50
2018-11-03T11:26:30.546Z,11.60
2018-11-03T11:27:30.583Z,12.10
2018-11-03T11:28:30.620Z,11.70
2018-11-03T11:29:30.657Z,12.10
2018-11-03T11:30:30.693Z,11.70
2018-11-03T11:31:30.826Z,12.00
2018-11-03T11:32:30.794Z,11.00
2018-11-03T11:33:30.807Z,12.30
2018-11-03T11:34:30.844Z,11.40
2018-11-03T11:35:30.883Z,11.70
2018-11-03T11:36:30.923Z,11.40
2018-11-03T11:37:31.036Z,11.50
2018-11-03T11:38:31.085Z,11.00
2018-11-03T11:39:31.038Z,11.30
2018-11-03T11:40:31.076Z,11.90
2018-11-03T11:41:31.113Z,10.60
2018-11-03T11:42:31.154Z,11.90
2018-11-03T11:43:31.192Z,10.10
2018-11-03T11:44:31.234Z,11.40
2018-11-03T11:45:31.273Z,10.50
2018-11-03T11:46:31.313Z,10.30
2018-11-03T11:47:31.355Z,10.80
2018-11-03T11:48:31.396Z,10.30
2018-11-03T11:49:31.437Z,10.30
2018-11-03T11:50:31.480Z,10.50
2018-11-03T11:51:31.522Z,11.00
2018-11-03T11:52:31.566Z,9.40
2018-11-03T11:53:31.604Z,10.70
2018-11-03T11:54:31.648Z,10.90
2018-11-03T11:55:31.690Z,10.40
2018-11-03T11:56:31.734Z,10.20
2018-11-03T11:57:31.776Z,10.70
2018-11-03T11:58:31.819Z,9.60
2018-11-03T11:59:31.865Z,10.00
2018-11-03T12:00:31.979Z,10.20
2018-11-03T12:01:31.949Z,10.30
2018-11-03T12:02:32.027Z,9.90
2018-11-03T12:03:32.038Z,10.80
2018-11-03T12:04:32.082Z,9.80
2018-11-03T12:05:32.124Z,9.80
2018-11-03T12:06:32.169Z,10.10
2018-11-03T12:07:32.213Z,9.40
2018-11-03T12:08:32.257Z,9.30
2018-11-03T12:09:32.303Z,9.40
2018-11-03T12:10:32.349Z,9.90
2018-11-03T12:11:32.391Z,9.50
2018-11-03T12:12:32.437Z,9.60
2018-11-03T12:13:32.479Z,9.80
2018-11-03T12:14:32.524Z,9.30
2018-11-03T12:15:32.570Z,9.80
2018-11-03T12:16:32.616Z,10.20
2018-11-03T12:17:33.091Z,9.70
2018-11-03T12:18:32.705Z,9.50
2018-11-03T12:19:32.773Z,8.50
2018-11-03T12:20:32.793Z,9.70
2018-11-03T12:21:32.837Z,9.30
2018-11-03T12:22:32.882Z,9.30
2018-11-03T12:23:32.953Z,9.80
2018-11-03T12:24:32.972Z,9.50
2018-11-03T12:28:09.412Z,9.20
2018-11-03T12:29:09.648Z,9.90
2018-11-03T12:32:10.916Z,8.90
2018-11-03T12:34:09.240Z,10.20
2018-11-03T12:35:09.275Z,9.60
2018-11-03T12:36:09.307Z,9.20
2018-11-03T12:37:09.351Z,9.70
2018-11-03T12:38:09.395Z,10.60
2018-11-03T12:39:09.441Z,10.50
2018-11-03T12:45:09.731Z,10.20
2018-11-03T12:52:10.035Z,10.50
2018-11-03T12:59:11.167Z,10.70
2018-11-03T13:07:11.005Z,10.70
2018-11-03T13:08:10.716Z,10.60
2018-11-03T13:09:10.882Z,10.20
2018-11-03T13:10:10.796Z,10.20
2018-11-03T13:11:10.843Z,10.60
2018-11-03T13:12:10.965Z,10.70
2018-11-03T13:13:10.925Z,11.10
2018-11-03T13:14:10.970Z,11.00
2018-11-03T13:15:11.011Z,11.60
2018-11-03T13:16:11.053Z,10.90
2018-11-03T13:17:11.097Z,11.10
2018-11-03T13:18:11.140Z,10.80
2018-11-03T13:19:11.183Z,12.00
2018-11-03T13:20:11.229Z,11.90
2018-11-03T13:21:11.271Z,10.70
2018-11-03T13:22:11.312Z,10.10
2018-11-03T13:23:11.354Z,10.20
2018-11-03T13:24:11.401Z,10.60
2018-11-03T13:25:11.441Z,10.90